x

Pt Arena - 19nm North Of Point Arena, Ca (46014) Wave Buoy

10:50am - Fri 31st Jul 2015 All times are PDT. -7 hours from GMT.

  • Sig Wave height 3.6ft
  • Peak Period 14s
  • Average Period 8s
  • Wind
    4mph, 7mph gusts
  • Sea Temp 60°f
  • Sea Pressure 1017mb
  • Pt Arena - 19nm North Of Point Arena, Ca
  • Pt Arena - 19nm North Of Point Arena, Ca

More Historic Weather Station data

Upgrade to MSW Pro to gain access to the past 30 days of data for over 8000 Wavebouys and Weather Stations around the globe.

Join Pro

Comparision Forecast

View Surf forecast
   
Fri 07/31 10:50am 3.5ft 14s 8s 4 7 mph 1017mb 60f
9:50am 4ft 8s 8s 4 7 mph 1016.9mb 60f
8:50am 4ft 15s 8s 4
mph
1017mb 59f
7:50am 4ft 8s 8s 2
mph
1016.8mb 58f
6:50am 4.5ft 8s 8s  -  2 mph 1016.5mb 57f
5:50am 4.5ft 8s 8s 4
mph
1016.2mb 57f
4:50am 4.5ft 8s 8s 2 4 mph 1016.2mb 57f
3:50am 4.5ft 8s 8s 4 7 mph 1016.1mb 58f
2:50am 5ft 8s 8s 4 7 mph 1016.3mb 58f
1:50am 4.5ft 8s 8s 2 4 mph 1016.5mb 58f
12:50am 4.5ft 8s 8s 4
mph
1016.7mb 58f
Thu 07/30 12:50pm 4.5ft 9s 8s 7
mph
1018mb 59f
11:50am 4.5ft 15s 8s 9
mph
1017.8mb 58f
10:50am 4.5ft 15s 8s 11 13 mph 1017.5mb 58f
9:50am 5ft 8s 7s 9
mph
1017.2mb 58f
8:50am 5ft 8s 7s 7 9 mph 1016.9mb 58f
7:50am 5ft 8s 7s 7 9 mph 1016.5mb 58f
6:50am 5ft 9s 7s 9 11 mph 1016mb 57f
5:50am 5.5ft 9s 7s 7 11 mph 1015.6mb 57f
4:50am 5ft 10s 7s 9 13 mph 1015.2mb 57f
3:50am 5ft 8s 6s 11 16 mph 1015mb 58f
2:50am 5ft 9s 7s 13 18 mph 1014.9mb 58f
1:50am 5ft 15s 7s 16 18 mph 1014.6mb 58f
12:50am 4.5ft 16s 8s 11 13 mph 1014.3mb 58f
Wed 07/29 11:50pm 5ft 9s 8s 7 9 mph 1013.9mb 58f
10:50pm 5ft 8s 8s 7 9 mph 1014.2mb 58f
9:50pm 5ft 16s 8s 7 9 mph 1014.1mb 58f
8:50pm 4.5ft 9s 7s 9 11 mph 1013.8mb 58f
7:50pm 5ft 9s 7s 7 9 mph 1013.8mb 58f
6:50pm 5ft 10s 7s 9 11 mph 1013.7mb 58f
5:50pm 5.5ft 9s 7s 9 11 mph 1013.9mb 57f
4:50pm 6ft 9s 7s 9 13 mph 1013.8mb 57f
3:50pm  -   -   -  11 13 mph 1013.9mb 58f
2:50pm 6ft 9s 6s 16 18 mph 1013.9mb 58f
1:50pm 6ft 9s 7s 16 18 mph 1013.7mb 57f
12:50pm 6ft 9s 7s 13 16 mph 1013.5mb 58f
11:50am 5.5ft 9s 7s 11 13 mph 1013.3mb 58f
10:50am 6.5ft 9s 7s 13 16 mph 1013mb 57f
9:50am 6ft 9s 7s 16 18 mph 1012.5mb 57f
8:50am 6ft 9s 7s 13 16 mph 1012.3mb 57f
7:50am 7ft 16s 8s 13 16 mph 1012.1mb 58f
6:50am 6.5ft 10s 8s 11 16 mph 1011.5mb 57f
5:50am 7ft 9s 8s 9 11 mph 1011.1mb 57f
4:50am 7ft 9s 7s 9 11 mph 1011.1mb 58f
3:50am 7ft 9s 7s 4 7 mph 1011mb 58f
2:50am  -   -   -  2 4 mph 1010.7mb 59f
1:50am  -   -   -  2
mph
- -
12:50am 7ft 8s 7s 4 7 mph 1011.3mb 59f
Tue 07/28 1:50pm 6.5ft 9s 7s 2
mph
1012.7mb 59f
12:50pm 7.5ft 9s 7s 2 4 mph 1013mb 58f
11:50am 7ft 9s 7s  -  2 mph 1012.7mb 56f
10:50am 7.5ft 9s 7s  -  2 mph 1012.6mb 55f
9:50am 8.5ft 9s 7s 4 7 mph 1012.3mb 54f
8:50am 8ft 10s 7s 11
mph
1012mb 54f
7:50am 9ft 9s 7s 11 13 mph 1011.9mb 54f
6:50am 8.5ft 9s 7s 11 13 mph 1011.8mb 54f
5:50am 8.5ft 8s 7s 11 13 mph 1011.8mb 54f
4:50am 9ft 8s 7s 11
mph
1011.9mb 54f
3:50am 8ft 8s 7s 11 13 mph 1012.1mb 54f
2:50am 8ft 9s 7s 9 11 mph 1012.6mb 54f
1:50am 8ft 8s 7s 11 13 mph 1012.9mb 54f
12:50am 9ft 8s 6s 13 16 mph 1013.2mb 54f
Mon 07/27 11:50pm 8ft 8s 6s 16 20 mph 1013.4mb 55f
10:50pm 9ft 8s 6s 16 20 mph 1013.7mb 55f
9:50pm 8ft 8s 6s 11 16 mph 1013.9mb 55f
8:50pm 9ft 8s 6s 16 20 mph 1013.5mb 55f
7:50pm 8.5ft 8s 6s 16 20 mph 1013.9mb 55f
6:50pm 9ft 8s 6s 13 16 mph 1014.1mb 55f